sensor_id;sensor_type;location;lat;lon;timestamp;pressure;altitude;pressure_sealevel;temperature;humidity
51178;BME280;37243;49.814;8.652;2022-10-16T00:02:16;99980.38;;;26.60;43.99
51178;BME280;37243;49.814;8.652;2022-10-16T00:04:45;99977.97;;;26.59;44.04
51178;BME280;37243;49.814;8.652;2022-10-16T00:07:13;99978.44;;;26.61;43.91
51178;BME280;37243;49.814;8.652;2022-10-16T00:09:45;99971.78;;;26.62;44.19
51178;BME280;37243;49.814;8.652;2022-10-16T00:12:14;99963.53;;;26.62;44.41
51178;BME280;37243;49.814;8.652;2022-10-16T00:14:42;99973.72;;;26.61;44.26
51178;BME280;37243;49.814;8.652;2022-10-16T00:17:10;99981.53;;;26.59;44.32
51178;BME280;37243;49.814;8.652;2022-10-16T00:19:39;99979.56;;;26.60;44.30
51178;BME280;37243;49.814;8.652;2022-10-16T00:22:08;99994.97;;;26.61;44.26
51178;BME280;37243;49.814;8.652;2022-10-16T00:24:36;99990.59;;;26.60;44.42
51178;BME280;37243;49.814;8.652;2022-10-16T00:27:07;99989.44;;;26.61;44.29
51178;BME280;37243;49.814;8.652;2022-10-16T00:29:36;99972.47;;;26.59;44.36
51178;BME280;37243;49.814;8.652;2022-10-16T00:32:04;99984.28;;;26.59;43.82
51178;BME280;37243;49.814;8.652;2022-10-16T00:34:34;99982.31;;;26.60;44.11
51178;BME280;37243;49.814;8.652;2022-10-16T00:37:03;99988.66;;;26.60;43.94
51178;BME280;37243;49.814;8.652;2022-10-16T00:39:31;99994.16;;;26.60;44.47
51178;BME280;37243;49.814;8.652;2022-10-16T00:42:00;99991.03;;;26.62;44.04
51178;BME280;37243;49.814;8.652;2022-10-16T00:44:58;99984.28;;;26.59;44.25
51178;BME280;37243;49.814;8.652;2022-10-16T00:47:31;99985.09;;;26.60;43.91
51178;BME280;37243;49.814;8.652;2022-10-16T00:50:04;99987.84;;;26.60;44.50
51178;BME280;37243;49.814;8.652;2022-10-16T00:52:35;99987.03;;;26.59;43.93
51178;BME280;37243;49.814;8.652;2022-10-16T00:55:07;99979.13;;;26.58;44.48
51178;BME280;37243;49.814;8.652;2022-10-16T00:57:37;99990.13;;;26.58;44.31
51178;BME280;37243;49.814;8.652;2022-10-16T01:00:11;99996.75;;;26.57;44.58
51178;BME280;37243;49.814;8.652;2022-10-16T01:02:41;99995.94;;;26.56;43.94
51178;BME280;37243;49.814;8.652;2022-10-16T01:05:09;99997.22;;;26.59;44.37
51178;BME280;37243;49.814;8.652;2022-10-16T01:07:44;100002.72;;;26.59;44.24
51178;BME280;37243;49.814;8.652;2022-10-16T01:10:26;100010.53;;;26.57;44.56
51178;BME280;37243;49.814;8.652;2022-10-16T01:13:00;99996.91;;;26.60;44.07
51178;BME280;37243;49.814;8.652;2022-10-16T01:15:36;100003.88;;;26.58;44.22
51178;BME280;37243;49.814;8.652;2022-10-16T01:18:10;99996.75;;;26.57;44.27
51178;BME280;37243;49.814;8.652;2022-10-16T01:20:45;100002.41;;;26.60;43.83
51178;BME280;37243;49.814;8.652;2022-10-16T01:23:31;100003.53;;;26.59;44.33
51178;BME280;37243;49.814;8.652;2022-10-16T01:26:19;100005.47;;;26.59;44.05
51178;BME280;37243;49.814;8.652;2022-10-16T01:28:55;100002.72;;;26.59;44.19
51178;BME280;37243;49.814;8.652;2022-10-16T01:31:28;100002.72;;;26.59;44.13
51178;BME280;37243;49.814;8.652;2022-10-16T01:34:02;100000.78;;;26.59;44.47
51178;BME280;37243;49.814;8.652;2022-10-16T01:36:35;99991.72;;;26.59;43.83
51178;BME280;37243;49.814;8.652;2022-10-16T01:39:06;100000.31;;;26.57;44.44
51178;BME280;37243;49.814;8.652;2022-10-16T01:41:40;99995.63;;;26.58;44.47
51178;BME280;37243;49.814;8.652;2022-10-16T01:44:17;99995.63;;;26.58;43.89
51178;BME280;37243;49.814;8.652;2022-10-16T01:46:50;99997.22;;;26.59;44.52
51178;BME280;37243;49.814;8.652;2022-10-16T01:49:20;100003.06;;;26.57;44.14
51178;BME280;37243;49.814;8.652;2022-10-16T01:51:53;100005.00;;;26.57;44.13
51178;BME280;37243;49.814;8.652;2022-10-16T01:54:25;100027.03;;;26.57;44.69
51178;BME280;37243;49.814;8.652;2022-10-16T01:56:56;100026.22;;;26.56;44.20
51178;BME280;37243;49.814;8.652;2022-10-16T01:59:30;100036.41;;;26.56;44.01
51178;BME280;37243;49.814;8.652;2022-10-16T02:02:03;100031.72;;;26.56;44.16
51178;BME280;37243;49.814;8.652;2022-10-16T02:04:36;100031.72;;;26.56;44.59
51178;BME280;37243;49.814;8.652;2022-10-16T02:07:06;100032.53;;;26.57;44.59
51178;BME280;37243;49.814;8.652;2022-10-16T02:09:36;100033.34;;;26.57;44.54
51178;BME280;37243;49.814;8.652;2022-10-16T02:12:10;100025.91;;;26.58;44.11
51178;BME280;37243;49.814;8.652;2022-10-16T02:14:43;100017.63;;;26.58;44.51
51178;BME280;37243;49.814;8.652;2022-10-16T02:17:13;100010.53;;;26.57;44.25
51178;BME280;37243;49.814;8.652;2022-10-16T02:19:42;100017.97;;;26.56;44.53
51178;BME280;37243;49.814;8.652;2022-10-16T02:22:15;100009.38;;;26.58;43.94
51178;BME280;37243;49.814;8.652;2022-10-16T02:24:52;100001.13;;;26.58;44.24
51178;BME280;37243;49.814;8.652;2022-10-16T02:27:25;100010.53;;;26.57;44.60
51178;BME280;37243;49.814;8.652;2022-10-16T02:30:25;100004.19;;;26.56;44.53
51178;BME280;37243;49.814;8.652;2022-10-16T02:32:56;100005.47;;;26.59;44.44
51178;BME280;37243;49.814;8.652;2022-10-16T02:35:27;100010.53;;;26.57;43.89
51178;BME280;37243;49.814;8.652;2022-10-16T02:37:57;100011.19;;;26.54;44.72
51178;BME280;37243;49.814;8.652;2022-10-16T02:40:26;100014.41;;;26.56;44.24
51178;BME280;37243;49.814;8.652;2022-10-16T02:42:55;100010.53;;;26.57;43.94
51178;BME280;37243;49.814;8.652;2022-10-16T02:45:26;100011.31;;;26.57;44.24
51178;BME280;37243;49.814;8.652;2022-10-16T02:47:55;100017.63;;;26.58;43.91
51178;BME280;37243;49.814;8.652;2022-10-16T02:50:24;100021.97;;;26.59;44.24
51178;BME280;37243;49.814;8.652;2022-10-16T02:52:53;100027.03;;;26.57;44.46
51178;BME280;37243;49.814;8.652;2022-10-16T02:55:21;100028.97;;;26.56;44.29
51178;BME280;37243;49.814;8.652;2022-10-16T02:57:50;100037.56;;;26.55;44.26
51178;BME280;37243;49.814;8.652;2022-10-16T03:00:20;100032.53;;;26.57;44.27
51178;BME280;37243;49.814;8.652;2022-10-16T03:02:51;100038.03;;;26.57;44.56
51178;BME280;37243;49.814;8.652;2022-10-16T03:05:19;100033.34;;;26.57;43.88
51178;BME280;37243;49.814;8.652;2022-10-16T03:07:48;100044.66;;;26.56;44.25
51178;BME280;37243;49.814;8.652;2022-10-16T03:10:18;100046.75;;;26.59;44.21
51178;BME280;37243;49.814;8.652;2022-10-16T03:12:47;100038.03;;;26.57;43.95
51178;BME280;37243;49.814;8.652;2022-10-16T03:15:16;100043.53;;;26.57;44.24
51178;BME280;37243;49.814;8.652;2022-10-16T03:17:45;100038.03;;;26.57;44.28
51178;BME280;37243;49.814;8.652;2022-10-16T03:20:16;100042.72;;;26.56;44.29
51178;BME280;37243;49.814;8.652;2022-10-16T03:22:44;100042.72;;;26.56;44.77
51178;BME280;37243;49.814;8.652;2022-10-16T03:25:13;100041.25;;;26.59;44.03
51178;BME280;37243;49.814;8.652;2022-10-16T03:27:42;100047.41;;;26.56;44.18
51178;BME280;37243;49.814;8.652;2022-10-16T03:30:11;100040.78;;;26.57;43.86
51178;BME280;37243;49.814;8.652;2022-10-16T03:32:40;100046.28;;;26.57;43.98
51178;BME280;37243;49.814;8.652;2022-10-16T03:35:09;100042.72;;;26.56;44.62
51178;BME280;37243;49.814;8.652;2022-10-16T03:37:52;100045.00;;;26.54;44.58
51178;BME280;37243;49.814;8.652;2022-10-16T03:40:21;100044.66;;;26.56;44.32
51178;BME280;37243;49.814;8.652;2022-10-16T03:42:50;100035.63;;;26.55;44.74
51178;BME280;37243;49.814;8.652;2022-10-16T03:45:31;100043.88;;;26.55;44.33
51178;BME280;37243;49.814;8.652;2022-10-16T03:47:59;100054.06;;;26.55;44.22
51178;BME280;37243;49.814;8.652;2022-10-16T03:50:28;100058.41;;;26.56;44.32
51178;BME280;37243;49.814;8.652;2022-10-16T03:52:59;100063.91;;;26.56;44.00
51178;BME280;37243;49.814;8.652;2022-10-16T03:55:27;100054.53;;;26.57;44.33
51178;BME280;37243;49.814;8.652;2022-10-16T03:57:56;100057.75;;;26.59;44.01
51178;BME280;37243;49.814;8.652;2022-10-16T04:00:24;100058.56;;;26.59;43.96
51178;BME280;37243;49.814;8.652;2022-10-16T04:02:53;100060.50;;;26.59;44.41
51178;BME280;37243;49.814;8.652;2022-10-16T04:05:21;100071.50;;;26.59;43.96
51178;BME280;37243;49.814;8.652;2022-10-16T04:07:49;100075.88;;;26.60;44.29
51178;BME280;37243;49.814;8.652;2022-10-16T04:13:24;100049.97;;;26.61;44.24
51178;BME280;37243;49.814;8.652;2022-10-16T04:15:53;100058.69;;;26.63;44.00
51178;BME280;37243;49.814;8.652;2022-10-16T04:18:22;100050.44;;;26.63;44.24
51178;BME280;37243;49.814;8.652;2022-10-16T04:20:53;100059.81;;;26.62;44.25
51178;BME280;37243;49.814;8.652;2022-10-16T04:23:21;100064.19;;;26.63;44.02
51178;BME280;37243;49.814;8.652;2022-10-16T04:25:50;100069.69;;;26.63;44.22
51178;BME280;37243;49.814;8.652;2022-10-16T04:28:19;100072.78;;;26.61;44.03
51178;BME280;37243;49.814;8.652;2022-10-16T04:30:50;100070.50;;;26.63;44.24
51178;BME280;37243;49.814;8.652;2022-10-16T04:33:19;100071.31;;;26.64;44.26
51178;BME280;37243;49.814;8.652;2022-10-16T04:35:47;100068.56;;;26.64;44.49
51178;BME280;37243;49.814;8.652;2022-10-16T04:38:16;100065.81;;;26.64;44.27
51178;BME280;37243;49.814;8.652;2022-10-16T04:40:44;100067.41;;;26.65;44.28
51178;BME280;37243;49.814;8.652;2022-10-16T04:43:12;100079.56;;;26.64;44.27
51178;BME280;37243;49.814;8.652;2022-10-16T04:45:41;100069.69;;;26.63;43.84
51178;BME280;37243;49.814;8.652;2022-10-16T04:48:12;100069.69;;;26.63;43.76
51178;BME280;37243;49.814;8.652;2022-10-16T04:50:41;100066.94;;;26.63;44.27
51178;BME280;37243;49.814;8.652;2022-10-16T04:53:09;100067.75;;;26.63;44.59
51178;BME280;37243;49.814;8.652;2022-10-16T04:55:38;100062.72;;;26.65;44.02
51178;BME280;37243;49.814;8.652;2022-10-16T04:58:06;100065.00;;;26.63;44.51
51178;BME280;37243;49.814;8.652;2022-10-16T05:00:35;100075.66;;;26.65;44.46
51178;BME280;37243;49.814;8.652;2022-10-16T05:03:04;100077.94;;;26.63;44.67
51178;BME280;37243;49.814;8.652;2022-10-16T05:05:36;100070.16;;;26.65;44.55
51178;BME280;37243;49.814;8.652;2022-10-16T05:08:05;100062.25;;;26.63;44.58
51178;BME280;37243;49.814;8.652;2022-10-16T05:10:33;100069.69;;;26.63;44.41
51178;BME280;37243;49.814;8.652;2022-10-16T05:13:01;100064.34;;;26.66;43.89
51178;BME280;37243;49.814;8.652;2022-10-16T05:15:30;100056.09;;;26.66;44.59
51178;BME280;37243;49.814;8.652;2022-10-16T05:17:58;100054.09;;;26.67;44.10
51178;BME280;37243;49.814;8.652;2022-10-16T05:20:27;100063.53;;;26.66;44.22
51178;BME280;37243;49.814;8.652;2022-10-16T05:23:00;100049.78;;;26.66;44.20
51178;BME280;37243;49.814;8.652;2022-10-16T05:25:29;100060.78;;;26.66;44.68
51178;BME280;37243;49.814;8.652;2022-10-16T05:27:57;100067.41;;;26.65;44.49
51178;BME280;37243;49.814;8.652;2022-10-16T05:30:26;100070.16;;;26.65;44.45
51178;BME280;37243;49.814;8.652;2022-10-16T05:32:54;100068.56;;;26.64;44.34
51178;BME280;37243;49.814;8.652;2022-10-16T05:35:22;100069.03;;;26.66;44.50
51178;BME280;37243;49.814;8.652;2022-10-16T05:37:50;100067.41;;;26.65;44.38
51178;BME280;37243;49.814;8.652;2022-10-16T05:40:23;100080.03;;;26.66;44.18
51178;BME280;37243;49.814;8.652;2022-10-16T05:42:54;100083.91;;;26.65;43.92
51178;BME280;37243;49.814;8.652;2022-10-16T05:45:23;100082.31;;;26.64;43.94
51178;BME280;37243;49.814;8.652;2022-10-16T05:47:52;100080.72;;;26.63;43.94
51178;BME280;37243;49.814;8.652;2022-10-16T05:50:20;100083.47;;;26.63;44.18
51178;BME280;37243;49.814;8.652;2022-10-16T05:52:48;100088.97;;;26.63;43.87
51178;BME280;37243;49.814;8.652;2022-10-16T05:55:17;100094.47;;;26.63;44.61
51178;BME280;37243;49.814;8.652;2022-10-16T05:57:48;100091.72;;;26.63;44.59
51178;BME280;37243;49.814;8.652;2022-10-16T06:00:17;100105.47;;;26.63;44.57
51178;BME280;37243;49.814;8.652;2022-10-16T06:02:45;100117.28;;;26.63;44.13
51178;BME280;37243;49.814;8.652;2022-10-16T06:05:13;100124.72;;;26.63;44.00
51178;BME280;37243;49.814;8.652;2022-10-16T06:07:42;100114.53;;;26.63;44.58
51178;BME280;37243;49.814;8.652;2022-10-16T06:10:10;100119.22;;;26.63;43.91
51178;BME280;37243;49.814;8.652;2022-10-16T06:12:38;100121.97;;;26.63;44.49
51178;BME280;37243;49.814;8.652;2022-10-16T06:15:10;100126.34;;;26.64;44.31
51178;BME280;37243;49.814;8.652;2022-10-16T06:17:38;100127.13;;;26.64;44.58
51178;BME280;37243;49.814;8.652;2022-10-16T06:20:07;100124.72;;;26.63;44.11
51178;BME280;37243;49.814;8.652;2022-10-16T06:22:35;100133.44;;;26.65;44.17
51178;BME280;37243;49.814;8.652;2022-10-16T06:25:05;100130.69;;;26.65;44.56
51178;BME280;37243;49.814;8.652;2022-10-16T06:27:33;100129.41;;;26.62;44.25
51178;BME280;37243;49.814;8.652;2022-10-16T06:30:02;100134.13;;;26.62;44.31
51178;BME280;37243;49.814;8.652;2022-10-16T06:32:33;100132.97;;;26.63;44.64
51178;BME280;37243;49.814;8.652;2022-10-16T06:35:01;100123.91;;;26.62;44.29
51178;BME280;37243;49.814;8.652;2022-10-16T06:37:29;100126.34;;;26.64;44.22
51178;BME280;37243;49.814;8.652;2022-10-16T06:39:58;100134.25;;;26.65;44.12
51178;BME280;37243;49.814;8.652;2022-10-16T06:42:29;100134.59;;;26.64;44.08
51178;BME280;37243;49.814;8.652;2022-10-16T06:44:57;100129.88;;;26.64;44.30
51178;BME280;37243;49.814;8.652;2022-10-16T06:47:27;100125.19;;;26.65;44.31
51178;BME280;37243;49.814;8.652;2022-10-16T06:49:58;100126.34;;;26.64;44.32
51178;BME280;37243;49.814;8.652;2022-10-16T06:52:28;100132.97;;;26.63;44.27
51178;BME280;37243;49.814;8.652;2022-10-16T06:54:56;100141.38;;;26.66;44.45
51178;BME280;37243;49.814;8.652;2022-10-16T06:57:25;100159.38;;;26.64;44.81
51178;BME280;37243;49.814;8.652;2022-10-16T06:59:53;100163.25;;;26.63;44.16
51178;BME280;37243;49.814;8.652;2022-10-16T07:02:21;100168.75;;;26.63;44.11
51178;BME280;37243;49.814;8.652;2022-10-16T07:04:50;100154.53;;;26.61;44.31
51178;BME280;37243;49.814;8.652;2022-10-16T07:07:21;100147.56;;;26.63;44.31
51178;BME280;37243;49.814;8.652;2022-10-16T07:09:51;100159.69;;;26.62;44.59
51178;BME280;37243;49.814;8.652;2022-10-16T07:12:20;100162.44;;;26.62;43.97
51178;BME280;37243;49.814;8.652;2022-10-16T07:14:49;100168.41;;;26.64;43.99
51178;BME280;37243;49.814;8.652;2022-10-16T07:17:18;100173.13;;;26.64;44.31
51178;BME280;37243;49.814;8.652;2022-10-16T07:19:46;100178.13;;;26.62;44.05
51178;BME280;37243;49.814;8.652;2022-10-16T07:22:14;100181.69;;;26.62;43.89
51178;BME280;37243;49.814;8.652;2022-10-16T07:24:45;100180.88;;;26.62;44.51
51178;BME280;37243;49.814;8.652;2022-10-16T07:27:14;100189.28;;;26.65;44.30
51178;BME280;37243;49.814;8.652;2022-10-16T07:29:42;100193.06;;;26.61;44.39
51178;BME280;37243;49.814;8.652;2022-10-16T07:32:11;100195.47;;;26.62;44.36
51178;BME280;37243;49.814;8.652;2022-10-16T07:34:39;100194.31;;;26.63;43.98
51178;BME280;37243;49.814;8.652;2022-10-16T07:37:08;100200.97;;;26.62;44.68
51178;BME280;37243;49.814;8.652;2022-10-16T07:39:36;100208.41;;;26.62;44.68
51178;BME280;37243;49.814;8.652;2022-10-16T07:42:07;100209.22;;;26.62;44.52
51178;BME280;37243;49.814;8.652;2022-10-16T07:44:36;100210.84;;;26.63;44.02
51178;BME280;37243;49.814;8.652;2022-10-16T07:47:05;100215.31;;;26.68;44.25
51178;BME280;37243;49.814;8.652;2022-10-16T07:49:34;100219.22;;;26.67;43.95
51178;BME280;37243;49.814;8.652;2022-10-16T07:52:02;100214.50;;;26.67;44.54
51178;BME280;37243;49.814;8.652;2022-10-16T07:54:31;100218.06;;;26.68;43.87
51178;BME280;37243;49.814;8.652;2022-10-16T07:56:59;100219.22;;;26.67;44.56
51178;BME280;37243;49.814;8.652;2022-10-16T07:59:30;100225.22;;;26.69;44.25
51178;BME280;37243;49.814;8.652;2022-10-16T08:01:58;100226.34;;;26.68;44.67
51178;BME280;37243;49.814;8.652;2022-10-16T08:04:27;100222.44;;;26.69;44.57
51178;BME280;37243;49.814;8.652;2022-10-16T08:06:55;100229.91;;;26.68;44.28
51178;BME280;37243;49.814;8.652;2022-10-16T08:09:24;100234.59;;;26.68;44.35
51178;BME280;37243;49.814;8.652;2022-10-16T08:11:52;100239.28;;;26.67;43.96
51178;BME280;37243;49.814;8.652;2022-10-16T08:14:20;100242.84;;;26.68;44.12
51178;BME280;37243;49.814;8.652;2022-10-16T08:16:51;100238.47;;;26.67;44.30
51178;BME280;37243;49.814;8.652;2022-10-16T08:19:20;100244.31;;;26.65;44.55
51178;BME280;37243;49.814;8.652;2022-10-16T08:21:48;100246.25;;;26.65;44.06
51178;BME280;37243;49.814;8.652;2022-10-16T08:24:16;100252.56;;;26.65;44.35
51178;BME280;37243;49.814;8.652;2022-10-16T08:26:45;100259.69;;;26.66;44.29
51178;BME280;37243;49.814;8.652;2022-10-16T08:29:13;100264.38;;;26.66;44.45
51178;BME280;37243;49.814;8.652;2022-10-16T08:31:42;100277.34;;;26.65;44.36
51178;BME280;37243;49.814;8.652;2022-10-16T08:34:13;100287.53;;;26.65;44.09
51178;BME280;37243;49.814;8.652;2022-10-16T08:36:42;100311.03;;;26.62;44.17
51178;BME280;37243;49.814;8.652;2022-10-16T08:39:10;100333.50;;;26.64;44.00
51178;BME280;37243;49.814;8.652;2022-10-16T08:42:00;100346.78;;;26.62;43.94
51178;BME280;37243;49.814;8.652;2022-10-16T08:44:42;100324.94;;;26.66;44.69
51178;BME280;37243;49.814;8.652;2022-10-16T08:47:18;100318.28;;;26.67;44.76
51178;BME280;37243;49.814;8.652;2022-10-16T08:49:56;100321.38;;;26.65;44.68
51178;BME280;37243;49.814;8.652;2022-10-16T08:52:29;100316.69;;;26.66;44.05
51178;BME280;37243;49.814;8.652;2022-10-16T08:55:01;100320.09;;;26.63;44.81
51178;BME280;37243;49.814;8.652;2022-10-16T08:57:30;100340.97;;;26.64;44.70
51178;BME280;37243;49.814;8.652;2022-10-16T09:00:12;100334.97;;;26.62;45.58
51178;BME280;37243;49.814;8.652;2022-10-16T09:02:48;100328.63;;;26.70;44.08
51178;BME280;37243;49.814;8.652;2022-10-16T09:05:44;100333.00;;;26.71;45.00
51178;BME280;37243;49.814;8.652;2022-10-16T09:08:23;100329.59;;;26.74;44.20
51178;BME280;37243;49.814;8.652;2022-10-16T09:10:58;100332.47;;;26.77;44.15
51178;BME280;37243;49.814;8.652;2022-10-16T09:13:34;100327.94;;;26.81;43.62
51178;BME280;37243;49.814;8.652;2022-10-16T09:16:14;100327.63;;;26.83;43.83
51178;BME280;37243;49.814;8.652;2022-10-16T09:18:52;100338.78;;;26.86;43.90
51178;BME280;37243;49.814;8.652;2022-10-16T09:21:28;100339.56;;;26.87;44.23
51178;BME280;37243;49.814;8.652;2022-10-16T09:23:58;100339.56;;;26.87;43.87
51178;BME280;37243;49.814;8.652;2022-10-16T09:26:28;100341.53;;;26.86;43.85
51178;BME280;37243;49.814;8.652;2022-10-16T09:28:56;100345.22;;;26.90;44.17
51178;BME280;37243;49.814;8.652;2022-10-16T09:31:24;100349.13;;;26.89;44.18
51178;BME280;37243;49.814;8.652;2022-10-16T09:33:57;100350.72;;;26.90;44.04
51178;BME280;37243;49.814;8.652;2022-10-16T09:36:34;100356.25;;;26.90;44.05
51178;BME280;37243;49.814;8.652;2022-10-16T09:39:05;100354.31;;;26.91;44.41
51178;BME280;37243;49.814;8.652;2022-10-16T09:41:35;100351.06;;;26.89;43.59
51178;BME280;37243;49.814;8.652;2022-10-16T09:44:16;100360.94;;;26.90;43.49
51178;BME280;37243;49.814;8.652;2022-10-16T09:46:46;100367.59;;;26.89;43.60
51178;BME280;37243;49.814;8.652;2022-10-16T09:49:21;100377.44;;;26.90;43.56
51178;BME280;37243;49.814;8.652;2022-10-16T09:52:03;100375.50;;;26.90;43.71
51178;BME280;37243;49.814;8.652;2022-10-16T09:54:32;100370.34;;;26.89;43.90
51178;BME280;37243;49.814;8.652;2022-10-16T09:57:10;100374.69;;;26.90;43.98
51178;BME280;37243;49.814;8.652;2022-10-16T09:59:47;100371.94;;;26.90;43.58
51178;BME280;37243;49.814;8.652;2022-10-16T10:02:16;100369.53;;;26.88;43.75
51178;BME280;37243;49.814;8.652;2022-10-16T10:04:50;100377.13;;;26.91;43.60
51178;BME280;37243;49.814;8.652;2022-10-16T10:07:24;100373.56;;;26.91;43.59
51178;BME280;37243;49.814;8.652;2022-10-16T10:09:54;100386.22;;;26.92;44.03
51178;BME280;37243;49.814;8.652;2022-10-16T10:12:25;100380.56;;;26.88;43.69
51178;BME280;37243;49.814;8.652;2022-10-16T10:14:56;100388.16;;;26.91;43.76
51178;BME280;37243;49.814;8.652;2022-10-16T10:17:25;100379.88;;;26.91;44.24
51178;BME280;37243;49.814;8.652;2022-10-16T10:19:56;100379.53;;;26.93;44.37
51178;BME280;37243;49.814;8.652;2022-10-16T10:22:31;100378.41;;;26.94;44.33
51178;BME280;37243;49.814;8.652;2022-10-16T10:25:17;100371.94;;;26.90;44.39
51178;BME280;37243;49.814;8.652;2022-10-16T10:28:02;100387.34;;;26.91;44.41
51178;BME280;37243;49.814;8.652;2022-10-16T10:30:38;100382.28;;;26.93;44.11
51178;BME280;37243;49.814;8.652;2022-10-16T10:33:17;100376.78;;;26.93;44.11
51178;BME280;37243;49.814;8.652;2022-10-16T10:35:52;100373.56;;;26.91;44.24
51178;BME280;37243;49.814;8.652;2022-10-16T10:38:34;100373.56;;;26.91;44.34
51178;BME280;37243;49.814;8.652;2022-10-16T10:44:03;100378.59;;;26.89;43.81
51178;BME280;37243;49.814;8.652;2022-10-16T10:46:40;100376.97;;;26.88;44.22
51178;BME280;37243;49.814;8.652;2022-10-16T10:49:17;100375.84;;;26.89;43.76
51178;BME280;37243;49.814;8.652;2022-10-16T10:51:57;100379.41;;;26.89;44.05
51178;BME280;37243;49.814;8.652;2022-10-16T10:54:38;100375.84;;;26.89;43.72
51178;BME280;37243;49.814;8.652;2022-10-16T10:57:21;100375.03;;;26.88;43.95
51178;BME280;37243;49.814;8.652;2022-10-16T11:00:03;100379.72;;;26.88;44.12
51178;BME280;37243;49.814;8.652;2022-10-16T11:05:45;100365.31;;;26.91;44.19
51178;BME280;37243;49.814;8.652;2022-10-16T11:08:27;100366.13;;;26.91;44.35
51178;BME280;37243;49.814;8.652;2022-10-16T11:11:10;100372.91;;;26.94;44.15
51178;BME280;37243;49.814;8.652;2022-10-16T11:13:50;100371.28;;;26.93;43.67
51178;BME280;37243;49.814;8.652;2022-10-16T11:16:27;100364.66;;;26.94;44.44
51178;BME280;37243;49.814;8.652;2022-10-16T11:19:02;100364.34;;;26.95;43.67
51178;BME280;37243;49.814;8.652;2022-10-16T11:21:39;100369.03;;;26.95;43.66
51178;BME280;37243;49.814;8.652;2022-10-16T11:24:19;100372.91;;;26.94;44.02
51178;BME280;37243;49.814;8.652;2022-10-16T11:27:00;100369.97;;;26.99;43.97
51178;BME280;37243;49.814;8.652;2022-10-16T11:29:44;100380.16;;;26.98;43.96
51178;BME280;37243;49.814;8.652;2022-10-16T11:32:26;100375.34;;;26.95;44.44
51178;BME280;37243;49.814;8.652;2022-10-16T11:35:17;100376.94;;;26.96;43.96
51178;BME280;37243;49.814;8.652;2022-10-16T11:37:49;100384.06;;;26.97;43.99
51178;BME280;37243;49.814;8.652;2022-10-16T11:40:25;100376.13;;;26.96;44.49
51178;BME280;37243;49.814;8.652;2022-10-16T11:43:04;100378.88;;;26.96;44.03
51178;BME280;37243;49.814;8.652;2022-10-16T11:45:41;100379.38;;;26.98;43.81
51178;BME280;37243;49.814;8.652;2022-10-16T11:48:21;100388.75;;;26.97;44.01
51178;BME280;37243;49.814;8.652;2022-10-16T11:51:08;100377.75;;;26.97;44.38
51178;BME280;37243;49.814;8.652;2022-10-16T11:53:45;100375.47;;;26.99;43.74
51178;BME280;37243;49.814;8.652;2022-10-16T11:56:29;100372.25;;;26.97;43.69
51178;BME280;37243;49.814;8.652;2022-10-16T11:59:15;100366.28;;;26.95;43.64
51178;BME280;37243;49.814;8.652;2022-10-16T12:01:59;100357.19;;;26.94;44.03
51178;BME280;37243;49.814;8.652;2022-10-16T12:04:40;100360.41;;;26.96;44.44
51178;BME280;37243;49.814;8.652;2022-10-16T12:07:18;100361.22;;;26.97;44.17
51178;BME280;37243;49.814;8.652;2022-10-16T12:10:17;100358.47;;;26.97;43.90
51178;BME280;37243;49.814;8.652;2022-10-16T12:12:46;100361.69;;;26.99;43.71
51178;BME280;37243;49.814;8.652;2022-10-16T12:15:24;100360.09;;;26.98;44.28
51178;BME280;37243;49.814;8.652;2022-10-16T12:17:53;100365.63;;;26.98;44.19
51178;BME280;37243;49.814;8.652;2022-10-16T12:20:26;100371.91;;;26.98;43.88
51178;BME280;37243;49.814;8.652;2022-10-16T12:22:57;100364.47;;;26.99;44.33
51178;BME280;37243;49.814;8.652;2022-10-16T12:25:29;100354.59;;;26.98;44.51
51178;BME280;37243;49.814;8.652;2022-10-16T12:28:00;100357.34;;;26.98;43.78
51178;BME280;37243;49.814;8.652;2022-10-16T12:30:34;100366.75;;;26.97;43.89
51178;BME280;37243;49.814;8.652;2022-10-16T12:33:05;100366.75;;;26.97;44.36
51178;BME280;37243;49.814;8.652;2022-10-16T12:35:42;100364.81;;;26.97;44.23
51178;BME280;37243;49.814;8.652;2022-10-16T12:38:17;100370.31;;;26.97;44.51
51178;BME280;37243;49.814;8.652;2022-10-16T12:40:56;100370.63;;;26.96;44.18
51178;BME280;37243;49.814;8.652;2022-10-16T12:43:36;100369.03;;;26.95;43.84
51178;BME280;37243;49.814;8.652;2022-10-16T12:46:34;100359.59;;;26.96;44.21
51178;BME280;37243;49.814;8.652;2022-10-16T12:49:22;100368.38;;;26.98;43.88
51178;BME280;37243;49.814;8.652;2022-10-16T12:51:54;100377.91;;;27.00;43.78
51178;BME280;37243;49.814;8.652;2022-10-16T12:54:25;100377.09;;;27.00;44.42
51178;BME280;37243;49.814;8.652;2022-10-16T12:57:25;100376.94;;;26.96;43.92
51178;BME280;37243;49.814;8.652;2022-10-16T13:00:03;100378.56;;;26.97;43.93
51178;BME280;37243;49.814;8.652;2022-10-16T13:02:55;100375.47;;;26.99;44.63
51178;BME280;37243;49.814;8.652;2022-10-16T13:05:43;100375.47;;;26.99;43.76
51178;BME280;37243;49.814;8.652;2022-10-16T13:08:29;100374.34;;;27.00;44.19
51178;BME280;37243;49.814;8.652;2022-10-16T13:11:06;100369.16;;;26.98;44.12
51178;BME280;37243;49.814;8.652;2022-10-16T13:14:02;100378.72;;;27.01;43.76
51178;BME280;37243;49.814;8.652;2022-10-16T13:16:48;100382.59;;;27.00;43.92
51178;BME280;37243;49.814;8.652;2022-10-16T13:19:29;100384.88;;;26.98;44.26
51178;BME280;37243;49.814;8.652;2022-10-16T13:22:05;100375.81;;;26.97;44.59
51178;BME280;37243;49.814;8.652;2022-10-16T13:24:47;100376.94;;;26.96;43.94
51178;BME280;37243;49.814;8.652;2022-10-16T13:27:26;100380.84;;;26.95;44.31
51178;BME280;37243;49.814;8.652;2022-10-16T13:30:02;100370.63;;;26.96;44.68